sensor_id;sensor_type;location;lat;lon;timestamp;pressure;altitude;pressure_sealevel;temperature;humidity
74960;BME280;63518;49.572;1.106;2023-08-08T00:02:11;99941.41;;;13.91;100.00
74960;BME280;63518;49.572;1.106;2023-08-08T00:04:38;99968.13;;;14.00;100.00
74960;BME280;63518;49.572;1.106;2023-08-08T00:07:05;99924.25;;;13.70;100.00
74960;BME280;63518;49.572;1.106;2023-08-08T00:09:44;99888.31;;;13.46;100.00
74960;BME280;63518;49.572;1.106;2023-08-08T00:12:12;99962.28;;;14.02;100.00
74960;BME280;63518;49.572;1.106;2023-08-08T00:15:00;99922.50;;;13.55;100.00
74960;BME280;63518;49.572;1.106;2023-08-08T00:17:29;99928.44;;;13.67;100.00
74960;BME280;63518;49.572;1.106;2023-08-08T00:20:18;99916.47;;;13.91;100.00
74960;BME280;63518;49.572;1.106;2023-08-08T00:22:53;99914.97;;;13.98;100.00
74960;BME280;63518;49.572;1.106;2023-08-08T00:25:25;99915.78;;;13.99;100.00
74960;BME280;63518;49.572;1.106;2023-08-08T00:27:57;99914.94;;;14.17;100.00
74960;BME280;63518;49.572;1.106;2023-08-08T00:30:25;99941.06;;;14.30;100.00
74960;BME280;63518;49.572;1.106;2023-08-08T00:32:52;99898.41;;;13.93;100.00
74960;BME280;63518;49.572;1.106;2023-08-08T00:35:23;99879.06;;;13.88;100.00
74960;BME280;63518;49.572;1.106;2023-08-08T00:38:03;99923.53;;;14.34;100.00
74960;BME280;63518;49.572;1.106;2023-08-08T00:40:32;99927.81;;;14.08;100.00
74960;BME280;63518;49.572;1.106;2023-08-08T00:43:03;99856.50;;;13.62;100.00
74960;BME280;63518;49.572;1.106;2023-08-08T00:45:32;99938.03;;;14.12;100.00
74960;BME280;63518;49.572;1.106;2023-08-08T00:47:59;99951.66;;;14.09;100.00
74960;BME280;63518;49.572;1.106;2023-08-08T00:50:31;99901.75;;;13.90;100.00
74960;BME280;63518;49.572;1.106;2023-08-08T00:52:58;99923.94;;;13.71;100.00
74960;BME280;63518;49.572;1.106;2023-08-08T00:55:27;99873.78;;;13.54;100.00
74960;BME280;63518;49.572;1.106;2023-08-08T00:57:57;99943.81;;;14.16;100.00
74960;BME280;63518;49.572;1.106;2023-08-08T01:00:26;99942.69;;;14.17;100.00
74960;BME280;63518;49.572;1.106;2023-08-08T01:02:55;99890.31;;;13.78;100.00
74960;BME280;63518;49.572;1.106;2023-08-08T01:05:24;99905.13;;;13.87;100.00
74960;BME280;63518;49.572;1.106;2023-08-08T01:08:03;99901.09;;;13.79;100.00
74960;BME280;63518;49.572;1.106;2023-08-08T01:10:39;99928.94;;;13.88;100.00
74960;BME280;63518;49.572;1.106;2023-08-08T01:13:13;99917.19;;;13.96;100.00
74960;BME280;63518;49.572;1.106;2023-08-08T01:15:46;99911.34;;;13.98;100.00
74960;BME280;63518;49.572;1.106;2023-08-08T01:18:16;99924.53;;;13.87;100.00
74960;BME280;63518;49.572;1.106;2023-08-08T01:20:46;99906.06;;;13.82;100.00
74960;BME280;63518;49.572;1.106;2023-08-08T01:23:22;99925.66;;;13.86;100.00
74960;BME280;63518;49.572;1.106;2023-08-08T01:25:50;99914.59;;;13.86;100.00
74960;BME280;63518;49.572;1.106;2023-08-08T01:28:21;99919.91;;;13.82;100.00
74960;BME280;63518;49.572;1.106;2023-08-08T01:30:51;99919.50;;;13.89;100.00
74960;BME280;63518;49.572;1.106;2023-08-08T01:33:25;99882.53;;;13.80;100.00
74960;BME280;63518;49.572;1.106;2023-08-08T01:36:07;99905.41;;;14.04;100.00
74960;BME280;63518;49.572;1.106;2023-08-08T01:38:47;99938.00;;;14.31;100.00
74960;BME280;63518;49.572;1.106;2023-08-08T01:41:46;99857.38;;;13.76;100.00
74960;BME280;63518;49.572;1.106;2023-08-08T01:44:15;99902.19;;;13.97;100.00
74960;BME280;63518;49.572;1.106;2023-08-08T01:46:45;99912.84;;;13.90;100.00
74960;BME280;63518;49.572;1.106;2023-08-08T01:49:12;99870.19;;;13.91;100.00
74960;BME280;63518;49.572;1.106;2023-08-08T01:51:42;99877.44;;;13.87;100.00
74960;BME280;63518;49.572;1.106;2023-08-08T01:54:09;99885.13;;;13.90;100.00
74960;BME280;63518;49.572;1.106;2023-08-08T01:56:36;99890.41;;;13.92;100.00
74960;BME280;63518;49.572;1.106;2023-08-08T01:59:03;99906.72;;;14.12;100.00
74960;BME280;63518;49.572;1.106;2023-08-08T02:01:30;99909.34;;;13.84;100.00
74960;BME280;63518;49.572;1.106;2023-08-08T02:03:58;99912.41;;;13.83;100.00
74960;BME280;63518;49.572;1.106;2023-08-08T02:06:29;99925.06;;;13.89;100.00
74960;BME280;63518;49.572;1.106;2023-08-08T02:08:56;99913.06;;;13.94;100.00
74960;BME280;63518;49.572;1.106;2023-08-08T02:11:23;99921.91;;;13.96;100.00
74960;BME280;63518;49.572;1.106;2023-08-08T02:13:50;99899.97;;;13.99;100.00
74960;BME280;63518;49.572;1.106;2023-08-08T02:16:28;99899.75;;;13.77;100.00
74960;BME280;63518;49.572;1.106;2023-08-08T02:18:55;99896.38;;;13.42;100.00
74960;BME280;63518;49.572;1.106;2023-08-08T02:21:22;99879.44;;;13.25;100.00
74960;BME280;63518;49.572;1.106;2023-08-08T02:23:51;99904.34;;;13.25;100.00
74960;BME280;63518;49.572;1.106;2023-08-08T02:26:18;99899.13;;;13.42;100.00
74960;BME280;63518;49.572;1.106;2023-08-08T02:28:47;99902.91;;;13.51;100.00
74960;BME280;63518;49.572;1.106;2023-08-08T02:31:14;99882.63;;;13.37;100.00
74960;BME280;63518;49.572;1.106;2023-08-08T02:33:48;99899.69;;;13.44;100.00
74960;BME280;63518;49.572;1.106;2023-08-08T02:36:24;99876.00;;;13.14;100.00
74960;BME280;63518;49.572;1.106;2023-08-08T02:38:51;99883.06;;;13.01;100.00
74960;BME280;63518;49.572;1.106;2023-08-08T02:41:21;99899.75;;;13.39;100.00
74960;BME280;63518;49.572;1.106;2023-08-08T02:43:49;99886.75;;;13.16;100.00
74960;BME280;63518;49.572;1.106;2023-08-08T02:46:16;99800.41;;;12.47;100.00
74960;BME280;63518;49.572;1.106;2023-08-08T02:48:45;99857.41;;;12.96;100.00
74960;BME280;63518;49.572;1.106;2023-08-08T02:51:12;99874.47;;;13.03;100.00
74960;BME280;63518;49.572;1.106;2023-08-08T02:53:40;99863.38;;;13.03;100.00
74960;BME280;63518;49.572;1.106;2023-08-08T02:56:13;99804.91;;;12.43;100.00
74960;BME280;63518;49.572;1.106;2023-08-08T02:58:43;99851.31;;;12.70;100.00
74960;BME280;63518;49.572;1.106;2023-08-08T03:01:10;99874.72;;;12.78;100.00
74960;BME280;63518;49.572;1.106;2023-08-08T03:03:40;99878.47;;;13.16;100.00
74960;BME280;63518;49.572;1.106;2023-08-08T03:06:08;99895.59;;;13.18;100.00
74960;BME280;63518;49.572;1.106;2023-08-08T03:08:40;99817.00;;;12.71;100.00
74960;BME280;63518;49.572;1.106;2023-08-08T03:11:12;99818.69;;;12.72;100.00
74960;BME280;63518;49.572;1.106;2023-08-08T03:13:44;99868.81;;;12.89;100.00
74960;BME280;63518;49.572;1.106;2023-08-08T03:16:11;99890.31;;;13.40;100.00
74960;BME280;63518;49.572;1.106;2023-08-08T03:18:42;99902.31;;;13.12;100.00
74960;BME280;63518;49.572;1.106;2023-08-08T03:21:12;99836.19;;;12.62;100.00
74960;BME280;63518;49.572;1.106;2023-08-08T03:23:44;99824.13;;;12.77;100.00
74960;BME280;63518;49.572;1.106;2023-08-08T03:26:11;99844.09;;;12.98;100.00
74960;BME280;63518;49.572;1.106;2023-08-08T03:28:39;99887.59;;;13.16;100.00
74960;BME280;63518;49.572;1.106;2023-08-08T03:31:11;99889.22;;;12.93;100.00
74960;BME280;63518;49.572;1.106;2023-08-08T03:33:41;99891.59;;;12.81;100.00
74960;BME280;63518;49.572;1.106;2023-08-08T03:36:19;99863.03;;;12.62;100.00
74960;BME280;63518;49.572;1.106;2023-08-08T03:38:47;99814.50;;;12.51;100.00
74960;BME280;63518;49.572;1.106;2023-08-08T03:41:24;99859.38;;;12.66;100.00
74960;BME280;63518;49.572;1.106;2023-08-08T03:43:52;99863.09;;;12.81;100.00
74960;BME280;63518;49.572;1.106;2023-08-08T03:46:20;99870.66;;;12.70;100.00
74960;BME280;63518;49.572;1.106;2023-08-08T03:48:47;99877.75;;;12.81;100.00
74960;BME280;63518;49.572;1.106;2023-08-08T03:51:17;99869.50;;;12.76;100.00
74960;BME280;63518;49.572;1.106;2023-08-08T03:53:46;99900.09;;;12.61;100.00
74960;BME280;63518;49.572;1.106;2023-08-08T03:56:15;99901.75;;;12.86;100.00
74960;BME280;63518;49.572;1.106;2023-08-08T03:58:43;99869.03;;;12.40;100.00
74960;BME280;63518;49.572;1.106;2023-08-08T04:01:13;99882.00;;;12.73;100.00
74960;BME280;63518;49.572;1.106;2023-08-08T04:03:40;99837.44;;;12.51;100.00
74960;BME280;63518;49.572;1.106;2023-08-08T04:06:07;99880.03;;;12.50;100.00
74960;BME280;63518;49.572;1.106;2023-08-08T04:08:34;99878.63;;;12.77;100.00
74960;BME280;63518;49.572;1.106;2023-08-08T04:11:01;99868.63;;;12.57;100.00
74960;BME280;63518;49.572;1.106;2023-08-08T04:13:28;99876.19;;;12.70;100.00
74960;BME280;63518;49.572;1.106;2023-08-08T04:15:55;99882.78;;;12.50;100.00
74960;BME280;63518;49.572;1.106;2023-08-08T04:18:22;99887.69;;;12.82;100.00
74960;BME280;63518;49.572;1.106;2023-08-08T04:20:49;99875.06;;;12.47;100.00
74960;BME280;63518;49.572;1.106;2023-08-08T04:23:19;99836.31;;;12.23;100.00
74960;BME280;63518;49.572;1.106;2023-08-08T04:26:10;99798.00;;;11.87;100.00
74960;BME280;63518;49.572;1.106;2023-08-08T04:28:39;99836.41;;;12.18;100.00
74960;BME280;63518;49.572;1.106;2023-08-08T04:31:07;99815.19;;;11.79;100.00
74960;BME280;63518;49.572;1.106;2023-08-08T04:33:46;99887.75;;;12.48;100.00
74960;BME280;63518;49.572;1.106;2023-08-08T04:36:13;99847.19;;;12.14;100.00
74960;BME280;63518;49.572;1.106;2023-08-08T04:38:53;99829.50;;;11.86;100.00
74960;BME280;63518;49.572;1.106;2023-08-08T04:41:27;99860.50;;;12.07;100.00
74960;BME280;63518;49.572;1.106;2023-08-08T04:43:54;99882.13;;;12.34;100.00
74960;BME280;63518;49.572;1.106;2023-08-08T04:46:24;99863.97;;;12.23;100.00
74960;BME280;63518;49.572;1.106;2023-08-08T04:48:53;99879.06;;;12.36;100.00
74960;BME280;63518;49.572;1.106;2023-08-08T04:51:22;99843.75;;;12.28;100.00
74960;BME280;63518;49.572;1.106;2023-08-08T04:53:51;99867.19;;;12.35;100.00
74960;BME280;63518;49.572;1.106;2023-08-08T04:56:20;99900.84;;;12.42;100.00
74960;BME280;63518;49.572;1.106;2023-08-08T04:58:56;99897.88;;;12.34;100.00
74960;BME280;63518;49.572;1.106;2023-08-08T05:01:26;99876.25;;;12.41;100.00
74960;BME280;63518;49.572;1.106;2023-08-08T05:03:54;99853.41;;;12.01;100.00
74960;BME280;63518;49.572;1.106;2023-08-08T05:06:23;99869.91;;;12.40;100.00
74960;BME280;63518;49.572;1.106;2023-08-08T05:08:51;99869.28;;;12.14;100.00
74960;BME280;63518;49.572;1.106;2023-08-08T05:11:30;99818.66;;;11.56;100.00
74960;BME280;63518;49.572;1.106;2023-08-08T05:13:57;99895.75;;;12.26;100.00
74960;BME280;63518;49.572;1.106;2023-08-08T05:16:24;99897.09;;;12.28;100.00
74960;BME280;63518;49.572;1.106;2023-08-08T05:18:52;99896.84;;;12.25;100.00
74960;BME280;63518;49.572;1.106;2023-08-08T05:21:19;99886.94;;;12.47;100.00
74960;BME280;63518;49.572;1.106;2023-08-08T05:23:47;99801.06;;;11.86;100.00
74960;BME280;63518;49.572;1.106;2023-08-08T05:26:15;99851.69;;;12.05;100.00
74960;BME280;63518;49.572;1.106;2023-08-08T05:28:51;99898.72;;;12.29;100.00
74960;BME280;63518;49.572;1.106;2023-08-08T05:31:23;99892.25;;;12.44;100.00
74960;BME280;63518;49.572;1.106;2023-08-08T05:33:50;99889.00;;;12.37;100.00
74960;BME280;63518;49.572;1.106;2023-08-08T05:36:17;99881.38;;;12.24;100.00
74960;BME280;63518;49.572;1.106;2023-08-08T05:38:44;99888.75;;;12.33;100.00
74960;BME280;63518;49.572;1.106;2023-08-08T05:41:11;99883.34;;;12.47;100.00
74960;BME280;63518;49.572;1.106;2023-08-08T05:43:38;99867.00;;;12.27;100.00
74960;BME280;63518;49.572;1.106;2023-08-08T05:46:07;99864.44;;;12.30;100.00
74960;BME280;63518;49.572;1.106;2023-08-08T05:48:35;99908.81;;;12.73;100.00
74960;BME280;63518;49.572;1.106;2023-08-08T05:51:03;99883.84;;;12.78;100.00
74960;BME280;63518;49.572;1.106;2023-08-08T05:53:32;99848.84;;;12.44;100.00
74960;BME280;63518;49.572;1.106;2023-08-08T05:55:59;99870.34;;;12.47;100.00
74960;BME280;63518;49.572;1.106;2023-08-08T05:58:26;99889.72;;;12.71;100.00
74960;BME280;63518;49.572;1.106;2023-08-08T06:00:53;99894.34;;;12.81;100.00
74960;BME280;63518;49.572;1.106;2023-08-08T06:03:20;99893.41;;;12.67;100.00
74960;BME280;63518;49.572;1.106;2023-08-08T06:05:47;99870.78;;;12.60;100.00
74960;BME280;63518;49.572;1.106;2023-08-08T06:08:15;99899.88;;;12.81;100.00
74960;BME280;63518;49.572;1.106;2023-08-08T06:10:43;99871.75;;;12.74;100.00
74960;BME280;63518;49.572;1.106;2023-08-08T06:13:10;99906.91;;;12.97;100.00
74960;BME280;63518;49.572;1.106;2023-08-08T06:15:37;99910.31;;;12.89;100.00
74960;BME280;63518;49.572;1.106;2023-08-08T06:18:05;99900.88;;;12.90;100.00
74960;BME280;63518;49.572;1.106;2023-08-08T06:20:35;99896.03;;;12.77;100.00
74960;BME280;63518;49.572;1.106;2023-08-08T06:23:03;99898.44;;;13.13;100.00
74960;BME280;63518;49.572;1.106;2023-08-08T06:25:33;99900.25;;;13.41;100.00
74960;BME280;63518;49.572;1.106;2023-08-08T06:28:00;99900.63;;;13.35;100.00
74960;BME280;63518;49.572;1.106;2023-08-08T06:30:27;99879.53;;;13.20;100.00
74960;BME280;63518;49.572;1.106;2023-08-08T06:32:55;99908.25;;;13.24;100.00
74960;BME280;63518;49.572;1.106;2023-08-08T06:35:22;99896.44;;;13.37;100.00
74960;BME280;63518;49.572;1.106;2023-08-08T06:37:49;99881.38;;;13.06;100.00
74960;BME280;63518;49.572;1.106;2023-08-08T06:40:16;99903.50;;;13.48;100.00
74960;BME280;63518;49.572;1.106;2023-08-08T06:42:43;99901.03;;;13.47;100.00
74960;BME280;63518;49.572;1.106;2023-08-08T06:45:10;99901.09;;;13.42;100.00
74960;BME280;63518;49.572;1.106;2023-08-08T06:47:39;99891.69;;;13.62;100.00
74960;BME280;63518;49.572;1.106;2023-08-08T06:50:06;99891.22;;;13.73;100.00
74960;BME280;63518;49.572;1.106;2023-08-08T06:52:33;99903.19;;;13.88;100.00
74960;BME280;63518;49.572;1.106;2023-08-08T06:55:03;99849.69;;;13.36;100.00
74960;BME280;63518;49.572;1.106;2023-08-08T06:57:33;99880.38;;;13.77;100.00
74960;BME280;63518;49.572;1.106;2023-08-08T07:00:02;99881.53;;;13.33;100.00
74960;BME280;63518;49.572;1.106;2023-08-08T07:02:32;99885.81;;;13.82;100.00
74960;BME280;63518;49.572;1.106;2023-08-08T07:05:00;99884.47;;;13.79;100.00
74960;BME280;63518;49.572;1.106;2023-08-08T07:07:29;99854.94;;;13.75;100.00
74960;BME280;63518;49.572;1.106;2023-08-08T07:10:19;99842.25;;;13.88;100.00
74960;BME280;63518;49.572;1.106;2023-08-08T07:12:47;99865.09;;;13.79;100.00
74960;BME280;63518;49.572;1.106;2023-08-08T07:15:26;99892.78;;;14.17;100.00
74960;BME280;63518;49.572;1.106;2023-08-08T07:18:10;99804.38;;;13.83;100.00
74960;BME280;63518;49.572;1.106;2023-08-08T07:21:02;99869.06;;;14.06;100.00
74960;BME280;63518;49.572;1.106;2023-08-08T07:23:43;99851.06;;;13.90;100.00
74960;BME280;63518;49.572;1.106;2023-08-08T07:26:35;99815.81;;;14.09;100.00
74960;BME280;63518;49.572;1.106;2023-08-08T07:29:26;99799.28;;;14.23;100.00
74960;BME280;63518;49.572;1.106;2023-08-08T07:32:07;99871.00;;;14.84;100.00
74960;BME280;63518;49.572;1.106;2023-08-08T07:35:08;99820.44;;;14.74;100.00
74960;BME280;63518;49.572;1.106;2023-08-08T07:37:44;99825.34;;;14.35;100.00
74960;BME280;63518;49.572;1.106;2023-08-08T07:40:17;99834.00;;;14.61;100.00
74960;BME280;63518;49.572;1.106;2023-08-08T07:43:04;99834.63;;;14.72;100.00
74960;BME280;63518;49.572;1.106;2023-08-08T07:45:32;99829.28;;;15.03;100.00
74960;BME280;63518;49.572;1.106;2023-08-08T07:48:08;99847.03;;;15.16;100.00
74960;BME280;63518;49.572;1.106;2023-08-08T07:50:44;99803.28;;;16.16;100.00
74960;BME280;63518;49.572;1.106;2023-08-08T07:53:20;99780.59;;;15.56;100.00
74960;BME280;63518;49.572;1.106;2023-08-08T07:55:50;99866.22;;;16.34;100.00
74960;BME280;63518;49.572;1.106;2023-08-08T07:58:17;99817.28;;;16.11;100.00
74960;BME280;63518;49.572;1.106;2023-08-08T08:00:45;99789.94;;;16.67;100.00
74960;BME280;63518;49.572;1.106;2023-08-08T08:03:13;99864.91;;;17.03;100.00
74960;BME280;63518;49.572;1.106;2023-08-08T08:06:01;99841.22;;;15.90;100.00
74960;BME280;63518;49.572;1.106;2023-08-08T08:08:30;99858.88;;;16.16;100.00
74960;BME280;63518;49.572;1.106;2023-08-08T08:11:09;99846.91;;;16.29;100.00
74960;BME280;63518;49.572;1.106;2023-08-08T08:13:46;99830.66;;;16.23;100.00
74960;BME280;63518;49.572;1.106;2023-08-08T08:17:11;99826.41;;;16.56;100.00
74960;BME280;63518;49.572;1.106;2023-08-08T08:19:56;99870.69;;;17.15;100.00
74960;BME280;63518;49.572;1.106;2023-08-08T08:22:24;99861.78;;;18.05;100.00
74960;BME280;63518;49.572;1.106;2023-08-08T08:24:53;99818.16;;;17.57;100.00
74960;BME280;63518;49.572;1.106;2023-08-08T08:27:20;99787.66;;;17.26;100.00
74960;BME280;63518;49.572;1.106;2023-08-08T08:29:51;99841.13;;;17.71;100.00
74960;BME280;63518;49.572;1.106;2023-08-08T08:32:19;99841.63;;;17.56;100.00
74960;BME280;63518;49.572;1.106;2023-08-08T08:34:49;99861.31;;;17.11;100.00
74960;BME280;63518;49.572;1.106;2023-08-08T08:37:23;99839.47;;;17.53;100.00
74960;BME280;63518;49.572;1.106;2023-08-08T08:39:53;99791.91;;;17.75;100.00
74960;BME280;63518;49.572;1.106;2023-08-08T08:42:21;99849.66;;;17.83;100.00
74960;BME280;63518;49.572;1.106;2023-08-08T08:45:11;99855.34;;;17.43;100.00
74960;BME280;63518;49.572;1.106;2023-08-08T08:47:41;99853.53;;;18.43;100.00
74960;BME280;63518;49.572;1.106;2023-08-08T08:50:17;99869.59;;;19.01;100.00
74960;BME280;63518;49.572;1.106;2023-08-08T08:52:48;99866.16;;;18.96;100.00
74960;BME280;63518;49.572;1.106;2023-08-08T08:55:16;99854.63;;;19.56;100.00
74960;BME280;63518;49.572;1.106;2023-08-08T08:57:46;99883.84;;;19.88;100.00
74960;BME280;63518;49.572;1.106;2023-08-08T09:00:13;99847.22;;;19.60;100.00
74960;BME280;63518;49.572;1.106;2023-08-08T09:02:46;99835.38;;;19.34;100.00
74960;BME280;63518;49.572;1.106;2023-08-08T09:05:34;99826.19;;;21.11;100.00
74960;BME280;63518;49.572;1.106;2023-08-08T09:08:02;99805.78;;;19.95;100.00
74960;BME280;63518;49.572;1.106;2023-08-08T09:10:40;99843.63;;;20.47;100.00
74960;BME280;63518;49.572;1.106;2023-08-08T09:13:08;99868.25;;;21.11;100.00
74960;BME280;63518;49.572;1.106;2023-08-08T09:15:40;99867.16;;;20.46;100.00
74960;BME280;63518;49.572;1.106;2023-08-08T09:18:14;99865.25;;;19.42;100.00
74960;BME280;63518;49.572;1.106;2023-08-08T09:20:51;99870.47;;;18.84;100.00
74960;BME280;63518;49.572;1.106;2023-08-08T09:23:20;99871.59;;;20.14;100.00
74960;BME280;63518;49.572;1.106;2023-08-08T09:25:52;99864.88;;;20.15;100.00
74960;BME280;63518;49.572;1.106;2023-08-08T09:28:21;99874.75;;;20.78;100.00
74960;BME280;63518;49.572;1.106;2023-08-08T09:30:50;99873.09;;;19.99;100.00
74960;BME280;63518;49.572;1.106;2023-08-08T09:33:20;99876.28;;;20.43;100.00
74960;BME280;63518;49.572;1.106;2023-08-08T09:35:52;99865.13;;;20.22;99.06
74960;BME280;63518;49.572;1.106;2023-08-08T09:38:21;99859.47;;;19.18;100.00
74960;BME280;63518;49.572;1.106;2023-08-08T09:40:50;99866.69;;;18.89;100.00
74960;BME280;63518;49.572;1.106;2023-08-08T09:43:20;99856.81;;;18.45;100.00
74960;BME280;63518;49.572;1.106;2023-08-08T09:45:56;99863.91;;;21.14;100.00
74960;BME280;63518;49.572;1.106;2023-08-08T09:48:23;99868.69;;;21.13;100.00
74960;BME280;63518;49.572;1.106;2023-08-08T09:51:06;99858.53;;;21.33;100.00
74960;BME280;63518;49.572;1.106;2023-08-08T09:53:40;99861.19;;;20.68;97.12
74960;BME280;63518;49.572;1.106;2023-08-08T09:56:11;99859.81;;;21.60;97.46
74960;BME280;63518;49.572;1.106;2023-08-08T09:58:46;99864.84;;;21.30;100.00
74960;BME280;63518;49.572;1.106;2023-08-08T10:01:15;99864.50;;;21.19;100.00
74960;BME280;63518;49.572;1.106;2023-08-08T10:03:48;99862.84;;;21.95;98.64
74960;BME280;63518;49.572;1.106;2023-08-08T10:06:15;99863.31;;;20.96;99.64
74960;BME280;63518;49.572;1.106;2023-08-08T10:08:44;99866.94;;;21.21;100.00
74960;BME280;63518;49.572;1.106;2023-08-08T10:11:21;99863.06;;;20.76;98.11
74960;BME280;63518;49.572;1.106;2023-08-08T10:14:20;99868.59;;;20.52;100.00
74960;BME280;63518;49.572;1.106;2023-08-08T10:16:49;99857.97;;;20.12;100.00
74960;BME280;63518;49.572;1.106;2023-08-08T10:19:21;99853.16;;;21.40;100.00
74960;BME280;63518;49.572;1.106;2023-08-08T10:22:03;99851.13;;;22.05;99.40
74960;BME280;63518;49.572;1.106;2023-08-08T10:24:34;99850.47;;;22.68;94.71
74960;BME280;63518;49.572;1.106;2023-08-08T10:27:26;99855.59;;;21.94;92.13
74960;BME280;63518;49.572;1.106;2023-08-08T10:30:04;99847.50;;;20.21;99.46
74960;BME280;63518;49.572;1.106;2023-08-08T10:32:46;99776.53;;;20.38;95.53
74960;BME280;63518;49.572;1.106;2023-08-08T10:35:20;99839.19;;;22.08;94.40
74960;BME280;63518;49.572;1.106;2023-08-08T10:37:52;99821.19;;;22.69;92.22
74960;BME280;63518;49.572;1.106;2023-08-08T10:40:42;99796.78;;;21.17;90.75
74960;BME280;63518;49.572;1.106;2023-08-08T10:43:58;99813.50;;;21.66;94.52
74960;BME280;63518;49.572;1.106;2023-08-08T10:46:32;99808.09;;;22.01;88.07
74960;BME280;63518;49.572;1.106;2023-08-08T10:49:11;99787.34;;;21.90;90.85
74960;BME280;63518;49.572;1.106;2023-08-08T10:51:53;99808.28;;;21.40;91.32
74960;BME280;63518;49.572;1.106;2023-08-08T10:54:33;99767.25;;;23.30;89.40
74960;BME280;63518;49.572;1.106;2023-08-08T10:57:03;99798.53;;;20.15;86.61
74960;BME280;63518;49.572;1.106;2023-08-08T10:59:37;99834.19;;;22.30;87.17
74960;BME280;63518;49.572;1.106;2023-08-08T11:02:16;99837.88;;;21.13;86.29
74960;BME280;63518;49.572;1.106;2023-08-08T11:05:07;99768.59;;;20.52;92.78
74960;BME280;63518;49.572;1.106;2023-08-08T11:07:42;99755.06;;;22.12;93.18
74960;BME280;63518;49.572;1.106;2023-08-08T11:10:10;99824.84;;;20.47;95.07
74960;BME280;63518;49.572;1.106;2023-08-08T11:12:39;99808.66;;;22.66;90.70
74960;BME280;63518;49.572;1.106;2023-08-08T11:15:09;99795.81;;;22.97;89.43
74960;BME280;63518;49.572;1.106;2023-08-08T11:17:36;99824.00;;;22.69;92.93
74960;BME280;63518;49.572;1.106;2023-08-08T11:20:05;99765.38;;;22.52;91.45
74960;BME280;63518;49.572;1.106;2023-08-08T11:22:34;99830.09;;;23.53;81.96
74960;BME280;63518;49.572;1.106;2023-08-08T11:25:03;99770.59;;;21.25;89.26
74960;BME280;63518;49.572;1.106;2023-08-08T11:27:34;99803.75;;;22.04;92.88
74960;BME280;63518;49.572;1.106;2023-08-08T11:30:07;99809.22;;;22.72;89.79
74960;BME280;63518;49.572;1.106;2023-08-08T11:32:36;99780.59;;;22.07;91.88
74960;BME280;63518;49.572;1.106;2023-08-08T11:35:07;99787.91;;;22.55;88.76
74960;BME280;63518;49.572;1.106;2023-08-08T11:37:57;99798.41;;;22.42;92.12
74960;BME280;63518;49.572;1.106;2023-08-08T11:40:28;99770.06;;;22.48;86.39
74960;BME280;63518;49.572;1.106;2023-08-08T11:43:00;99775.88;;;22.39;92.91
74960;BME280;63518;49.572;1.106;2023-08-08T11:45:27;99752.81;;;22.81;82.26
74960;BME280;63518;49.572;1.106;2023-08-08T11:47:55;99791.00;;;23.68;86.80
74960;BME280;63518;49.572;1.106;2023-08-08T11:50:44;99762.56;;;23.53;84.74
74960;BME280;63518;49.572;1.106;2023-08-08T11:53:13;99775.03;;;23.72;75.62
74960;BME280;63518;49.572;1.106;2023-08-08T11:55:42;99758.56;;;22.37;82.11
74960;BME280;63518;49.572;1.106;2023-08-08T11:58:13;99807.16;;;23.00;83.07
74960;BME280;63518;49.572;1.106;2023-08-08T12:00:52;99785.09;;;23.03;85.61
74960;BME280;63518;49.572;1.106;2023-08-08T12:03:25;99793.59;;;23.76;79.20
74960;BME280;63518;49.572;1.106;2023-08-08T12:05:55;99774.69;;;21.96;78.08
74960;BME280;63518;49.572;1.106;2023-08-08T12:08:23;99736.69;;;20.78;84.02
74960;BME280;63518;49.572;1.106;2023-08-08T12:10:51;99792.34;;;21.69;81.52
74960;BME280;63518;49.572;1.106;2023-08-08T12:14:59;99795.06;;;22.21;76.41
74960;BME280;63518;49.572;1.106;2023-08-08T12:17:43;99763.22;;;23.86;76.00
74960;BME280;63518;49.572;1.106;2023-08-08T12:20:10;99758.09;;;22.66;71.61
74960;BME280;63518;49.572;1.106;2023-08-08T12:23:13;99773.81;;;25.03;65.33
74960;BME280;63518;49.572;1.106;2023-08-08T12:25:42;99744.59;;;24.20;74.92
74960;BME280;63518;49.572;1.106;2023-08-08T12:28:11;99718.81;;;23.56;81.37
74960;BME280;63518;49.572;1.106;2023-08-08T12:30:44;99779.91;;;19.45;85.74
74960;BME280;63518;49.572;1.106;2023-08-08T12:33:22;99748.91;;;21.78;88.24
74960;BME280;63518;49.572;1.106;2023-08-08T12:35:49;99717.63;;;23.03;81.23
74960;BME280;63518;49.572;1.106;2023-08-08T12:38:19;99788.13;;;23.64;75.07
74960;BME280;63518;49.572;1.106;2023-08-08T12:41:06;99756.19;;;25.10;74.56
74960;BME280;63518;49.572;1.106;2023-08-08T12:43:36;99737.38;;;24.42;65.28
74960;BME280;63518;49.572;1.106;2023-08-08T12:46:04;99740.63;;;24.70;73.83
74960;BME280;63518;49.572;1.106;2023-08-08T12:48:32;99786.00;;;22.75;67.38
74960;BME280;63518;49.572;1.106;2023-08-08T12:51:02;99777.03;;;25.28;65.04
74960;BME280;63518;49.572;1.106;2023-08-08T12:53:42;99776.19;;;25.54;62.92
74960;BME280;63518;49.572;1.106;2023-08-08T12:56:09;99740.22;;;24.45;68.14
74960;BME280;63518;49.572;1.106;2023-08-08T12:58:37;99743.84;;;24.91;69.52
74960;BME280;63518;49.572;1.106;2023-08-08T13:01:15;99776.88;;;22.62;80.74
74960;BME280;63518;49.572;1.106;2023-08-08T13:03:52;99743.25;;;22.34;73.50
74960;BME280;63518;49.572;1.106;2023-08-08T13:06:43;99717.59;;;24.64;70.06
74960;BME280;63518;49.572;1.106;2023-08-08T13:09:11;99720.03;;;26.16;66.07
74960;BME280;63518;49.572;1.106;2023-08-08T13:11:40;99729.50;;;25.60;64.85
74960;BME280;63518;49.572;1.106;2023-08-08T13:14:11;99748.59;;;25.14;69.78
74960;BME280;63518;49.572;1.106;2023-08-08T13:16:39;99733.50;;;25.29;71.81
74960;BME280;63518;49.572;1.106;2023-08-08T13:19:12;99736.91;;;23.20;67.25
74960;BME280;63518;49.572;1.106;2023-08-08T13:21:52;99692.13;;;24.11;66.66